sensor_id;sensor_type;location;lat;lon;timestamp;P1;durP1;ratioP1;P2;durP2;ratioP2
11447;SDS011;43755;49.736;8.734;2023-04-25T00:01:35;5.65;;;5.15;;
11447;SDS011;43755;49.736;8.734;2023-04-25T00:03:38;5.10;;;4.60;;
11447;SDS011;43755;49.736;8.734;2023-04-25T00:05:40;5.70;;;5.20;;
11447;SDS011;43755;49.736;8.734;2023-04-25T00:07:41;5.78;;;5.38;;
11447;SDS011;43755;49.736;8.734;2023-04-25T00:09:43;5.85;;;5.35;;
11447;SDS011;43755;49.736;8.734;2023-04-25T00:11:45;5.45;;;5.05;;
11447;SDS011;43755;49.736;8.734;2023-04-25T00:13:47;5.88;;;5.38;;
11447;SDS011;43755;49.736;8.734;2023-04-25T00:15:49;6.18;;;5.63;;
11447;SDS011;43755;49.736;8.734;2023-04-25T00:17:51;6.40;;;5.90;;
11447;SDS011;43755;49.736;8.734;2023-04-25T00:19:53;6.78;;;6.18;;
11447;SDS011;43755;49.736;8.734;2023-04-25T00:21:55;7.35;;;6.65;;
11447;SDS011;43755;49.736;8.734;2023-04-25T00:23:57;7.85;;;7.07;;
11447;SDS011;43755;49.736;8.734;2023-04-25T00:25:58;7.50;;;6.80;;
11447;SDS011;43755;49.736;8.734;2023-04-25T00:28:01;7.85;;;7.10;;
11447;SDS011;43755;49.736;8.734;2023-04-25T00:30:03;8.55;;;7.75;;
11447;SDS011;43755;49.736;8.734;2023-04-25T00:32:05;7.97;;;7.32;;
11447;SDS011;43755;49.736;8.734;2023-04-25T00:34:07;7.70;;;7.10;;
11447;SDS011;43755;49.736;8.734;2023-04-25T00:36:09;8.40;;;7.43;;
11447;SDS011;43755;49.736;8.734;2023-04-25T00:38:11;7.75;;;7.15;;
11447;SDS011;43755;49.736;8.734;2023-04-25T00:40:12;8.07;;;7.38;;
11447;SDS011;43755;49.736;8.734;2023-04-25T00:42:14;9.15;;;8.27;;
11447;SDS011;43755;49.736;8.734;2023-04-25T00:44:17;8.98;;;8.07;;
11447;SDS011;43755;49.736;8.734;2023-04-25T00:46:19;8.95;;;8.15;;
11447;SDS011;43755;49.736;8.734;2023-04-25T00:48:21;9.30;;;8.40;;
11447;SDS011;43755;49.736;8.734;2023-04-25T00:50:23;8.85;;;8.15;;
11447;SDS011;43755;49.736;8.734;2023-04-25T00:52:24;9.10;;;8.20;;
11447;SDS011;43755;49.736;8.734;2023-04-25T00:54:26;9.93;;;9.02;;
11447;SDS011;43755;49.736;8.734;2023-04-25T00:56:27;9.35;;;8.55;;
11447;SDS011;43755;49.736;8.734;2023-04-25T00:58:29;8.82;;;8.05;;
11447;SDS011;43755;49.736;8.734;2023-04-25T01:00:32;9.75;;;8.77;;
11447;SDS011;43755;49.736;8.734;2023-04-25T01:02:34;9.98;;;8.98;;
11447;SDS011;43755;49.736;8.734;2023-04-25T01:04:36;8.65;;;7.82;;
11447;SDS011;43755;49.736;8.734;2023-04-25T01:06:37;9.18;;;8.38;;
11447;SDS011;43755;49.736;8.734;2023-04-25T01:08:39;9.55;;;8.65;;
11447;SDS011;43755;49.736;8.734;2023-04-25T01:10:41;8.95;;;8.05;;
11447;SDS011;43755;49.736;8.734;2023-04-25T01:12:42;9.10;;;8.20;;
11447;SDS011;43755;49.736;8.734;2023-04-25T01:14:44;9.07;;;8.27;;
11447;SDS011;43755;49.736;8.734;2023-04-25T01:16:47;9.38;;;8.52;;
11447;SDS011;43755;49.736;8.734;2023-04-25T01:18:48;9.25;;;8.45;;
11447;SDS011;43755;49.736;8.734;2023-04-25T01:20:50;9.35;;;8.55;;
11447;SDS011;43755;49.736;8.734;2023-04-25T01:22:54;9.38;;;8.57;;
11447;SDS011;43755;49.736;8.734;2023-04-25T01:24:56;9.73;;;8.93;;
11447;SDS011;43755;49.736;8.734;2023-04-25T01:26:58;9.40;;;8.40;;
11447;SDS011;43755;49.736;8.734;2023-04-25T01:29:01;10.13;;;9.10;;
11447;SDS011;43755;49.736;8.734;2023-04-25T01:31:02;9.50;;;8.70;;
11447;SDS011;43755;49.736;8.734;2023-04-25T01:33:05;8.10;;;7.38;;
11447;SDS011;43755;49.736;8.734;2023-04-25T01:35:09;9.82;;;8.90;;
11447;SDS011;43755;49.736;8.734;2023-04-25T01:37:12;9.75;;;8.85;;
11447;SDS011;43755;49.736;8.734;2023-04-25T01:39:16;9.50;;;8.60;;
11447;SDS011;43755;49.736;8.734;2023-04-25T01:41:17;9.80;;;8.90;;
11447;SDS011;43755;49.736;8.734;2023-04-25T01:43:19;9.45;;;8.65;;
11447;SDS011;43755;49.736;8.734;2023-04-25T01:45:21;9.90;;;9.10;;
11447;SDS011;43755;49.736;8.734;2023-04-25T01:47:22;10.57;;;9.60;;
11447;SDS011;43755;49.736;8.734;2023-04-25T01:49:24;9.93;;;9.02;;
11447;SDS011;43755;49.736;8.734;2023-04-25T01:51:25;10.50;;;9.60;;
11447;SDS011;43755;49.736;8.734;2023-04-25T01:53:27;10.48;;;9.48;;
11447;SDS011;43755;49.736;8.734;2023-04-25T01:55:30;10.27;;;9.38;;
11447;SDS011;43755;49.736;8.734;2023-04-25T01:57:32;9.93;;;9.10;;
11447;SDS011;43755;49.736;8.734;2023-04-25T01:59:33;9.77;;;8.88;;
11447;SDS011;43755;49.736;8.734;2023-04-25T02:01:34;10.07;;;9.15;;
11447;SDS011;43755;49.736;8.734;2023-04-25T02:03:36;9.77;;;8.77;;
11447;SDS011;43755;49.736;8.734;2023-04-25T02:05:38;10.15;;;9.25;;
11447;SDS011;43755;49.736;8.734;2023-04-25T02:07:40;10.48;;;9.48;;
11447;SDS011;43755;49.736;8.734;2023-04-25T02:09:41;9.35;;;8.55;;
11447;SDS011;43755;49.736;8.734;2023-04-25T02:11:44;9.07;;;8.27;;
11447;SDS011;43755;49.736;8.734;2023-04-25T02:13:46;8.20;;;7.47;;
11447;SDS011;43755;49.736;8.734;2023-04-25T02:15:47;8.23;;;7.53;;
11447;SDS011;43755;49.736;8.734;2023-04-25T02:17:49;6.85;;;6.28;;
11447;SDS011;43755;49.736;8.734;2023-04-25T02:19:52;7.70;;;6.97;;
11447;SDS011;43755;49.736;8.734;2023-04-25T02:21:54;8.25;;;7.55;;
11447;SDS011;43755;49.736;8.734;2023-04-25T02:23:57;8.25;;;7.55;;
11447;SDS011;43755;49.736;8.734;2023-04-25T02:25:58;8.35;;;7.55;;
11447;SDS011;43755;49.736;8.734;2023-04-25T02:28:01;8.48;;;7.78;;
11447;SDS011;43755;49.736;8.734;2023-04-25T02:30:03;8.27;;;7.47;;
11447;SDS011;43755;49.736;8.734;2023-04-25T02:32:06;8.13;;;7.40;;
11447;SDS011;43755;49.736;8.734;2023-04-25T02:34:07;8.40;;;7.68;;
11447;SDS011;43755;49.736;8.734;2023-04-25T02:36:09;8.50;;;7.80;;
11447;SDS011;43755;49.736;8.734;2023-04-25T02:38:11;8.07;;;7.38;;
11447;SDS011;43755;49.736;8.734;2023-04-25T02:40:12;8.43;;;7.63;;
11447;SDS011;43755;49.736;8.734;2023-04-25T02:42:13;8.18;;;7.47;;
11447;SDS011;43755;49.736;8.734;2023-04-25T02:44:16;8.00;;;7.30;;
11447;SDS011;43755;49.736;8.734;2023-04-25T02:46:17;7.68;;;7.03;;
11447;SDS011;43755;49.736;8.734;2023-04-25T02:48:19;7.97;;;7.32;;
11447;SDS011;43755;49.736;8.734;2023-04-25T02:50:20;7.32;;;6.72;;
11447;SDS011;43755;49.736;8.734;2023-04-25T02:52:22;8.27;;;7.47;;
11447;SDS011;43755;49.736;8.734;2023-04-25T02:54:23;8.27;;;7.57;;
11447;SDS011;43755;49.736;8.734;2023-04-25T02:56:25;8.55;;;7.85;;
11447;SDS011;43755;49.736;8.734;2023-04-25T02:58:27;8.65;;;7.85;;
11447;SDS011;43755;49.736;8.734;2023-04-25T03:00:30;8.55;;;7.85;;
11447;SDS011;43755;49.736;8.734;2023-04-25T03:02:31;8.20;;;7.50;;
11447;SDS011;43755;49.736;8.734;2023-04-25T03:04:33;8.90;;;8.13;;
11447;SDS011;43755;49.736;8.734;2023-04-25T03:06:34;9.55;;;8.68;;
11447;SDS011;43755;49.736;8.734;2023-04-25T03:08:35;9.38;;;8.43;;
11447;SDS011;43755;49.736;8.734;2023-04-25T03:10:37;10.00;;;9.00;;
11447;SDS011;43755;49.736;8.734;2023-04-25T03:12:39;9.65;;;8.75;;
11447;SDS011;43755;49.736;8.734;2023-04-25T03:14:41;10.13;;;9.13;;
11447;SDS011;43755;49.736;8.734;2023-04-25T03:16:43;9.57;;;8.60;;
11447;SDS011;43755;49.736;8.734;2023-04-25T03:18:45;9.75;;;8.85;;
11447;SDS011;43755;49.736;8.734;2023-04-25T03:20:47;10.18;;;8.98;;
11447;SDS011;43755;49.736;8.734;2023-04-25T03:22:48;9.70;;;8.90;;
11447;SDS011;43755;49.736;8.734;2023-04-25T03:24:50;10.25;;;9.25;;
11447;SDS011;43755;49.736;8.734;2023-04-25T03:26:51;9.93;;;9.02;;
11447;SDS011;43755;49.736;8.734;2023-04-25T03:28:53;9.85;;;8.95;;
11447;SDS011;43755;49.736;8.734;2023-04-25T03:30:54;9.32;;;8.50;;
11447;SDS011;43755;49.736;8.734;2023-04-25T03:32:57;9.73;;;8.77;;
11447;SDS011;43755;49.736;8.734;2023-04-25T03:34:59;9.70;;;8.90;;
11447;SDS011;43755;49.736;8.734;2023-04-25T03:37:00;9.40;;;8.50;;
11447;SDS011;43755;49.736;8.734;2023-04-25T03:39:02;9.63;;;8.82;;
11447;SDS011;43755;49.736;8.734;2023-04-25T03:41:03;9.32;;;8.48;;
11447;SDS011;43755;49.736;8.734;2023-04-25T03:43:05;9.98;;;8.90;;
11447;SDS011;43755;49.736;8.734;2023-04-25T03:45:07;9.55;;;8.65;;
11447;SDS011;43755;49.736;8.734;2023-04-25T03:47:09;10.65;;;9.65;;
11447;SDS011;43755;49.736;8.734;2023-04-25T03:49:11;9.82;;;8.93;;
11447;SDS011;43755;49.736;8.734;2023-04-25T03:51:13;10.05;;;9.15;;
11447;SDS011;43755;49.736;8.734;2023-04-25T03:53:14;9.70;;;8.80;;
11447;SDS011;43755;49.736;8.734;2023-04-25T03:55:16;9.65;;;8.65;;
11447;SDS011;43755;49.736;8.734;2023-04-25T03:57:17;10.57;;;9.48;;
11447;SDS011;43755;49.736;8.734;2023-04-25T03:59:18;11.07;;;10.05;;
11447;SDS011;43755;49.736;8.734;2023-04-25T04:01:20;10.32;;;9.43;;
11447;SDS011;43755;49.736;8.734;2023-04-25T04:03:21;10.60;;;9.55;;
11447;SDS011;43755;49.736;8.734;2023-04-25T04:05:24;10.50;;;9.50;;
11447;SDS011;43755;49.736;8.734;2023-04-25T04:07:25;9.50;;;8.70;;
11447;SDS011;43755;49.736;8.734;2023-04-25T04:09:27;10.25;;;9.35;;
11447;SDS011;43755;49.736;8.734;2023-04-25T04:11:28;10.95;;;9.85;;
11447;SDS011;43755;49.736;8.734;2023-04-25T04:13:31;11.18;;;10.00;;
11447;SDS011;43755;49.736;8.734;2023-04-25T04:15:32;11.35;;;9.52;;
11447;SDS011;43755;49.736;8.734;2023-04-25T04:17:34;10.05;;;9.05;;
11447;SDS011;43755;49.736;8.734;2023-04-25T04:19:35;9.75;;;8.75;;
11447;SDS011;43755;49.736;8.734;2023-04-25T04:21:38;10.35;;;9.38;;
11447;SDS011;43755;49.736;8.734;2023-04-25T04:23:39;10.70;;;9.80;;
11447;SDS011;43755;49.736;8.734;2023-04-25T04:25:41;10.63;;;9.63;;
11447;SDS011;43755;49.736;8.734;2023-04-25T04:27:42;10.57;;;9.57;;
11447;SDS011;43755;49.736;8.734;2023-04-25T04:29:44;10.88;;;9.88;;
11447;SDS011;43755;49.736;8.734;2023-04-25T04:31:47;9.93;;;9.02;;
11447;SDS011;43755;49.736;8.734;2023-04-25T04:33:49;10.55;;;9.27;;
11447;SDS011;43755;49.736;8.734;2023-04-25T04:35:50;10.70;;;9.63;;
11447;SDS011;43755;49.736;8.734;2023-04-25T04:37:54;11.02;;;9.90;;
11447;SDS011;43755;49.736;8.734;2023-04-25T04:39:56;11.07;;;10.05;;
11447;SDS011;43755;49.736;8.734;2023-04-25T04:41:57;10.73;;;9.73;;
11447;SDS011;43755;49.736;8.734;2023-04-25T04:43:58;11.55;;;10.35;;
11447;SDS011;43755;49.736;8.734;2023-04-25T04:46:01;11.13;;;9.98;;
11447;SDS011;43755;49.736;8.734;2023-04-25T04:48:04;10.75;;;9.75;;
11447;SDS011;43755;49.736;8.734;2023-04-25T04:50:06;11.82;;;10.60;;
11447;SDS011;43755;49.736;8.734;2023-04-25T04:52:09;11.73;;;10.52;;
11447;SDS011;43755;49.736;8.734;2023-04-25T04:54:12;11.40;;;10.23;;
11447;SDS011;43755;49.736;8.734;2023-04-25T04:56:13;10.63;;;9.52;;
11447;SDS011;43755;49.736;8.734;2023-04-25T04:58:15;13.02;;;10.32;;
11447;SDS011;43755;49.736;8.734;2023-04-25T05:00:16;11.73;;;10.10;;
11447;SDS011;43755;49.736;8.734;2023-04-25T05:02:18;11.82;;;10.63;;
11447;SDS011;43755;49.736;8.734;2023-04-25T05:04:19;12.05;;;10.85;;
11447;SDS011;43755;49.736;8.734;2023-04-25T05:06:21;12.35;;;10.48;;
11447;SDS011;43755;49.736;8.734;2023-04-25T05:08:22;11.27;;;10.27;;
11447;SDS011;43755;49.736;8.734;2023-04-25T05:10:25;11.95;;;10.70;;
11447;SDS011;43755;49.736;8.734;2023-04-25T05:12:27;11.27;;;10.07;;
11447;SDS011;43755;49.736;8.734;2023-04-25T05:14:28;13.70;;;10.70;;
11447;SDS011;43755;49.736;8.734;2023-04-25T05:16:30;12.45;;;10.75;;
11447;SDS011;43755;49.736;8.734;2023-04-25T05:18:31;13.05;;;10.90;;
11447;SDS011;43755;49.736;8.734;2023-04-25T05:20:33;12.98;;;11.70;;
11447;SDS011;43755;49.736;8.734;2023-04-25T05:22:34;12.43;;;11.13;;
11447;SDS011;43755;49.736;8.734;2023-04-25T05:24:35;12.40;;;11.20;;
11447;SDS011;43755;49.736;8.734;2023-04-25T05:26:38;12.40;;;11.13;;
11447;SDS011;43755;49.736;8.734;2023-04-25T05:28:40;14.10;;;11.82;;
11447;SDS011;43755;49.736;8.734;2023-04-25T05:30:42;12.68;;;11.38;;
11447;SDS011;43755;49.736;8.734;2023-04-25T05:32:43;13.05;;;11.63;;
11447;SDS011;43755;49.736;8.734;2023-04-25T05:34:45;14.20;;;12.00;;
11447;SDS011;43755;49.736;8.734;2023-04-25T05:36:46;13.48;;;11.68;;
11447;SDS011;43755;49.736;8.734;2023-04-25T05:38:48;13.02;;;11.05;;
11447;SDS011;43755;49.736;8.734;2023-04-25T05:40:50;12.45;;;11.25;;
11447;SDS011;43755;49.736;8.734;2023-04-25T05:42:53;16.38;;;11.40;;
11447;SDS011;43755;49.736;8.734;2023-04-25T05:44:54;13.30;;;10.95;;
11447;SDS011;43755;49.736;8.734;2023-04-25T05:46:55;12.43;;;11.07;;
11447;SDS011;43755;49.736;8.734;2023-04-25T05:48:57;14.45;;;11.38;;
11447;SDS011;43755;49.736;8.734;2023-04-25T05:50:58;12.30;;;11.05;;
11447;SDS011;43755;49.736;8.734;2023-04-25T05:52:59;13.05;;;11.13;;
11447;SDS011;43755;49.736;8.734;2023-04-25T05:55:01;13.00;;;11.68;;
11447;SDS011;43755;49.736;8.734;2023-04-25T05:57:02;13.57;;;11.90;;
11447;SDS011;43755;49.736;8.734;2023-04-25T05:59:05;13.95;;;11.95;;
11447;SDS011;43755;49.736;8.734;2023-04-25T06:01:07;15.48;;;11.90;;
11447;SDS011;43755;49.736;8.734;2023-04-25T06:03:08;16.58;;;12.13;;
11447;SDS011;43755;49.736;8.734;2023-04-25T06:05:10;15.77;;;11.35;;
11447;SDS011;43755;49.736;8.734;2023-04-25T06:07:11;16.70;;;11.68;;
11447;SDS011;43755;49.736;8.734;2023-04-25T06:09:13;13.20;;;10.85;;
11447;SDS011;43755;49.736;8.734;2023-04-25T06:11:14;13.15;;;11.18;;
11447;SDS011;43755;49.736;8.734;2023-04-25T06:13:15;14.32;;;9.77;;
11447;SDS011;43755;49.736;8.734;2023-04-25T06:15:18;14.13;;;9.13;;
11447;SDS011;43755;49.736;8.734;2023-04-25T06:17:20;13.52;;;9.68;;
11447;SDS011;43755;49.736;8.734;2023-04-25T06:19:21;12.63;;;8.68;;
11447;SDS011;43755;49.736;8.734;2023-04-25T06:21:23;14.50;;;8.35;;
11447;SDS011;43755;49.736;8.734;2023-04-25T06:23:24;10.68;;;7.65;;
11447;SDS011;43755;49.736;8.734;2023-04-25T06:25:26;11.60;;;7.53;;
11447;SDS011;43755;49.736;8.734;2023-04-25T06:27:27;11.18;;;7.00;;
11447;SDS011;43755;49.736;8.734;2023-04-25T06:29:28;9.32;;;6.72;;
11447;SDS011;43755;49.736;8.734;2023-04-25T06:31:31;9.93;;;5.53;;
11447;SDS011;43755;49.736;8.734;2023-04-25T06:33:33;9.27;;;5.90;;
11447;SDS011;43755;49.736;8.734;2023-04-25T06:35:35;13.60;;;6.35;;
11447;SDS011;43755;49.736;8.734;2023-04-25T06:37:36;7.95;;;5.22;;
11447;SDS011;43755;49.736;8.734;2023-04-25T06:39:37;8.35;;;5.93;;
11447;SDS011;43755;49.736;8.734;2023-04-25T06:41:39;10.45;;;5.85;;
11447;SDS011;43755;49.736;8.734;2023-04-25T06:43:40;11.32;;;6.72;;
11447;SDS011;43755;49.736;8.734;2023-04-25T06:45:42;10.45;;;6.22;;
11447;SDS011;43755;49.736;8.734;2023-04-25T06:47:44;9.73;;;5.97;;
11447;SDS011;43755;49.736;8.734;2023-04-25T06:49:46;12.60;;;6.72;;
11447;SDS011;43755;49.736;8.734;2023-04-25T06:51:47;11.30;;;6.50;;
11447;SDS011;43755;49.736;8.734;2023-04-25T06:53:49;10.80;;;6.68;;
11447;SDS011;43755;49.736;8.734;2023-04-25T06:55:50;12.00;;;7.07;;
11447;SDS011;43755;49.736;8.734;2023-04-25T06:57:51;11.02;;;7.03;;
11447;SDS011;43755;49.736;8.734;2023-04-25T06:59:53;10.90;;;6.93;;
11447;SDS011;43755;49.736;8.734;2023-04-25T07:01:54;12.93;;;7.95;;
11447;SDS011;43755;49.736;8.734;2023-04-25T07:03:57;13.07;;;7.80;;
11447;SDS011;43755;49.736;8.734;2023-04-25T07:05:58;14.25;;;8.07;;
11447;SDS011;43755;49.736;8.734;2023-04-25T07:08:00;11.07;;;7.22;;
11447;SDS011;43755;49.736;8.734;2023-04-25T07:10:01;12.23;;;7.32;;
11447;SDS011;43755;49.736;8.734;2023-04-25T07:12:03;13.98;;;7.47;;
11447;SDS011;43755;49.736;8.734;2023-04-25T07:14:05;14.48;;;7.88;;
11447;SDS011;43755;49.736;8.734;2023-04-25T07:16:06;8.23;;;6.90;;
11447;SDS011;43755;49.736;8.734;2023-04-25T07:18:07;10.10;;;7.13;;
11447;SDS011;43755;49.736;8.734;2023-04-25T07:20:10;10.73;;;7.25;;
11447;SDS011;43755;49.736;8.734;2023-04-25T07:22:12;9.07;;;7.30;;
11447;SDS011;43755;49.736;8.734;2023-04-25T07:24:13;10.45;;;6.82;;
11447;SDS011;43755;49.736;8.734;2023-04-25T07:26:14;10.10;;;6.78;;
11447;SDS011;43755;49.736;8.734;2023-04-25T07:28:16;10.48;;;6.75;;
11447;SDS011;43755;49.736;8.734;2023-04-25T07:30:17;12.50;;;7.55;;
11447;SDS011;43755;49.736;8.734;2023-04-25T07:32:19;8.30;;;6.30;;
11447;SDS011;43755;49.736;8.734;2023-04-25T07:34:20;10.23;;;6.00;;
11447;SDS011;43755;49.736;8.734;2023-04-25T07:36:23;7.05;;;5.55;;
11447;SDS011;43755;49.736;8.734;2023-04-25T07:38:26;6.82;;;4.50;;
11447;SDS011;43755;49.736;8.734;2023-04-25T07:40:27;7.60;;;5.85;;
11447;SDS011;43755;49.736;8.734;2023-04-25T07:42:29;8.10;;;5.60;;
11447;SDS011;43755;49.736;8.734;2023-04-25T07:44:30;8.80;;;4.65;;
11447;SDS011;43755;49.736;8.734;2023-04-25T07:46:32;9.20;;;4.93;;
11447;SDS011;43755;49.736;8.734;2023-04-25T07:48:34;6.97;;;4.75;;
11447;SDS011;43755;49.736;8.734;2023-04-25T07:50:35;8.18;;;5.15;;
11447;SDS011;43755;49.736;8.734;2023-04-25T07:52:38;9.35;;;5.45;;
11447;SDS011;43755;49.736;8.734;2023-04-25T07:54:39;8.50;;;5.20;;
11447;SDS011;43755;49.736;8.734;2023-04-25T07:56:41;7.28;;;4.55;;
11447;SDS011;43755;49.736;8.734;2023-04-25T07:58:43;8.20;;;5.45;;
11447;SDS011;43755;49.736;8.734;2023-04-25T08:00:44;7.38;;;4.90;;
11447;SDS011;43755;49.736;8.734;2023-04-25T08:02:45;7.60;;;5.47;;
11447;SDS011;43755;49.736;8.734;2023-04-25T08:04:47;8.95;;;5.32;;
11447;SDS011;43755;49.736;8.734;2023-04-25T08:06:49;10.18;;;5.72;;
11447;SDS011;43755;49.736;8.734;2023-04-25T08:08:52;8.48;;;5.50;;
11447;SDS011;43755;49.736;8.734;2023-04-25T08:10:53;8.77;;;5.97;;
11447;SDS011;43755;49.736;8.734;2023-04-25T08:12:55;10.02;;;5.82;;
11447;SDS011;43755;49.736;8.734;2023-04-25T08:14:56;10.00;;;5.80;;
11447;SDS011;43755;49.736;8.734;2023-04-25T08:16:58;10.77;;;6.10;;
11447;SDS011;43755;49.736;8.734;2023-04-25T08:18:59;11.07;;;6.28;;
11447;SDS011;43755;49.736;8.734;2023-04-25T08:21:01;11.30;;;6.07;;
11447;SDS011;43755;49.736;8.734;2023-04-25T08:23:02;11.52;;;6.28;;
11447;SDS011;43755;49.736;8.734;2023-04-25T08:25:05;11.40;;;5.80;;
11447;SDS011;43755;49.736;8.734;2023-04-25T08:27:07;9.85;;;5.55;;
11447;SDS011;43755;49.736;8.734;2023-04-25T08:29:08;10.95;;;6.13;;
11447;SDS011;43755;49.736;8.734;2023-04-25T08:31:10;11.15;;;6.07;;
11447;SDS011;43755;49.736;8.734;2023-04-25T08:33:11;7.85;;;5.53;;
11447;SDS011;43755;49.736;8.734;2023-04-25T08:35:13;6.40;;;5.10;;
11447;SDS011;43755;49.736;8.734;2023-04-25T08:37:14;10.20;;;5.28;;
11447;SDS011;43755;49.736;8.734;2023-04-25T08:39:15;10.20;;;5.53;;
11447;SDS011;43755;49.736;8.734;2023-04-25T08:41:18;10.45;;;5.35;;
11447;SDS011;43755;49.736;8.734;2023-04-25T08:43:22;9.30;;;5.65;;
11447;SDS011;43755;49.736;8.734;2023-04-25T08:45:25;10.93;;;6.10;;
11447;SDS011;43755;49.736;8.734;2023-04-25T08:47:28;7.50;;;5.53;;
11447;SDS011;43755;49.736;8.734;2023-04-25T08:49:31;8.13;;;5.45;;
11447;SDS011;43755;49.736;8.734;2023-04-25T08:51:33;7.93;;;5.03;;
11447;SDS011;43755;49.736;8.734;2023-04-25T08:53:37;6.30;;;4.95;;
11447;SDS011;43755;49.736;8.734;2023-04-25T08:55:42;9.45;;;4.97;;
11447;SDS011;43755;49.736;8.734;2023-04-25T08:57:46;7.80;;;4.97;;
11447;SDS011;43755;49.736;8.734;2023-04-25T08:59:48;7.43;;;4.70;;
11447;SDS011;43755;49.736;8.734;2023-04-25T09:01:50;6.25;;;4.57;;
11447;SDS011;43755;49.736;8.734;2023-04-25T09:03:51;7.15;;;4.90;;
11447;SDS011;43755;49.736;8.734;2023-04-25T09:05:53;8.05;;;5.00;;
11447;SDS011;43755;49.736;8.734;2023-04-25T09:07:56;9.30;;;5.78;;
11447;SDS011;43755;49.736;8.734;2023-04-25T09:09:58;9.10;;;5.93;;
11447;SDS011;43755;49.736;8.734;2023-04-25T09:12:01;9.27;;;5.07;;
11447;SDS011;43755;49.736;8.734;2023-04-25T09:14:14;10.10;;;5.07;;
11447;SDS011;43755;49.736;8.734;2023-04-25T09:16:16;7.40;;;4.35;;
11447;SDS011;43755;49.736;8.734;2023-04-25T09:18:22;6.18;;;3.63;;
11447;SDS011;43755;49.736;8.734;2023-04-25T09:20:25;5.68;;;3.65;;
11447;SDS011;43755;49.736;8.734;2023-04-25T09:22:26;4.25;;;2.60;;
11447;SDS011;43755;49.736;8.734;2023-04-25T09:24:31;3.78;;;2.78;;
11447;SDS011;43755;49.736;8.734;2023-04-25T09:26:34;4.30;;;3.20;;
11447;SDS011;43755;49.736;8.734;2023-04-25T09:28:35;6.70;;;3.83;;
11447;SDS011;43755;49.736;8.734;2023-04-25T09:30:39;5.78;;;3.85;;
11447;SDS011;43755;49.736;8.734;2023-04-25T09:32:41;6.15;;;4.30;;
11447;SDS011;43755;49.736;8.734;2023-04-25T09:34:44;7.78;;;4.80;;
11447;SDS011;43755;49.736;8.734;2023-04-25T09:36:48;7.53;;;5.50;;
11447;SDS011;43755;49.736;8.734;2023-04-25T09:38:49;7.85;;;5.03;;
11447;SDS011;43755;49.736;8.734;2023-04-25T09:40:51;9.07;;;4.85;;
11447;SDS011;43755;49.736;8.734;2023-04-25T09:42:52;8.18;;;4.32;;
11447;SDS011;43755;49.736;8.734;2023-04-25T09:44:55;7.53;;;4.75;;
11447;SDS011;43755;49.736;8.734;2023-04-25T09:46:58;8.75;;;4.50;;
11447;SDS011;43755;49.736;8.734;2023-04-25T09:49:00;7.35;;;5.07;;
11447;SDS011;43755;49.736;8.734;2023-04-25T09:51:08;10.18;;;4.95;;
11447;SDS011;43755;49.736;8.734;2023-04-25T09:53:11;5.63;;;4.53;;
11447;SDS011;43755;49.736;8.734;2023-04-25T09:55:12;4.95;;;4.30;;
11447;SDS011;43755;49.736;8.734;2023-04-25T09:57:14;5.15;;;3.67;;
11447;SDS011;43755;49.736;8.734;2023-04-25T09:59:17;6.78;;;3.25;;
11447;SDS011;43755;49.736;8.734;2023-04-25T10:01:20;4.15;;;3.00;;
11447;SDS011;43755;49.736;8.734;2023-04-25T10:03:25;5.57;;;3.60;;
11447;SDS011;43755;49.736;8.734;2023-04-25T10:05:27;4.78;;;2.80;;
11447;SDS011;43755;49.736;8.734;2023-04-25T10:07:31;4.38;;;2.90;;
11447;SDS011;43755;49.736;8.734;2023-04-25T10:09:38;4.22;;;2.85;;
11447;SDS011;43755;49.736;8.734;2023-04-25T10:11:41;5.57;;;2.78;;
11447;SDS011;43755;49.736;8.734;2023-04-25T10:13:42;3.95;;;2.88;;
11447;SDS011;43755;49.736;8.734;2023-04-25T10:15:44;5.38;;;3.22;;
11447;SDS011;43755;49.736;8.734;2023-04-25T10:17:46;4.57;;;3.28;;
11447;SDS011;43755;49.736;8.734;2023-04-25T10:19:50;6.43;;;3.20;;
11447;SDS011;43755;49.736;8.734;2023-04-25T10:21:52;5.60;;;3.00;;
11447;SDS011;43755;49.736;8.734;2023-04-25T10:23:59;5.50;;;3.03;;
11447;SDS011;43755;49.736;8.734;2023-04-25T10:26:01;5.47;;;3.10;;
11447;SDS011;43755;49.736;8.734;2023-04-25T10:28:03;5.78;;;2.88;;
11447;SDS011;43755;49.736;8.734;2023-04-25T10:30:06;4.25;;;3.17;;
11447;SDS011;43755;49.736;8.734;2023-04-25T10:32:10;5.68;;;3.20;;
11447;SDS011;43755;49.736;8.734;2023-04-25T10:34:11;4.28;;;2.80;;
11447;SDS011;43755;49.736;8.734;2023-04-25T10:36:14;3.90;;;3.20;;
11447;SDS011;43755;49.736;8.734;2023-04-25T10:38:18;4.18;;;3.10;;
11447;SDS011;43755;49.736;8.734;2023-04-25T10:40:21;6.40;;;3.15;;
11447;SDS011;43755;49.736;8.734;2023-04-25T10:42:23;6.05;;;3.20;;
11447;SDS011;43755;49.736;8.734;2023-04-25T10:44:26;3.33;;;2.92;;
11447;SDS011;43755;49.736;8.734;2023-04-25T10:46:28;5.88;;;3.30;;
11447;SDS011;43755;49.736;8.734;2023-04-25T10:48:30;3.85;;;3.10;;
11447;SDS011;43755;49.736;8.734;2023-04-25T10:50:36;4.38;;;3.38;;
11447;SDS011;43755;49.736;8.734;2023-04-25T10:52:39;4.15;;;2.85;;
11447;SDS011;43755;49.736;8.734;2023-04-25T10:54:41;3.55;;;3.05;;
11447;SDS011;43755;49.736;8.734;2023-04-25T10:56:43;4.18;;;2.90;;
11447;SDS011;43755;49.736;8.734;2023-04-25T10:58:45;5.55;;;3.10;;
11447;SDS011;43755;49.736;8.734;2023-04-25T11:00:47;3.72;;;2.55;;
11447;SDS011;43755;49.736;8.734;2023-04-25T11:02:49;2.85;;;2.63;;
11447;SDS011;43755;49.736;8.734;2023-04-25T11:04:53;3.67;;;2.90;;
11447;SDS011;43755;49.736;8.734;2023-04-25T11:06:59;4.50;;;3.60;;
11447;SDS011;43755;49.736;8.734;2023-04-25T11:09:10;6.55;;;3.30;;
11447;SDS011;43755;49.736;8.734;2023-04-25T11:11:13;5.60;;;3.55;;
11447;SDS011;43755;49.736;8.734;2023-04-25T11:13:15;5.03;;;3.25;;
11447;SDS011;43755;49.736;8.734;2023-04-25T11:15:18;5.70;;;3.45;;
11447;SDS011;43755;49.736;8.734;2023-04-25T11:17:19;7.90;;;3.67;;
11447;SDS011;43755;49.736;8.734;2023-04-25T11:19:21;4.68;;;3.60;;
11447;SDS011;43755;49.736;8.734;2023-04-25T11:21:22;6.65;;;3.38;;
11447;SDS011;43755;49.736;8.734;2023-04-25T11:23:23;6.47;;;3.70;;
11447;SDS011;43755;49.736;8.734;2023-04-25T11:25:27;5.03;;;3.70;;
11447;SDS011;43755;49.736;8.734;2023-04-25T11:27:30;6.60;;;3.67;;
11447;SDS011;43755;49.736;8.734;2023-04-25T11:29:33;5.25;;;3.50;;
11447;SDS011;43755;49.736;8.734;2023-04-25T11:31:35;6.05;;;4.07;;
11447;SDS011;43755;49.736;8.734;2023-04-25T11:33:37;6.10;;;4.18;;
11447;SDS011;43755;49.736;8.734;2023-04-25T11:35:40;6.57;;;4.47;;
11447;SDS011;43755;49.736;8.734;2023-04-25T11:37:41;5.72;;;4.35;;
11447;SDS011;43755;49.736;8.734;2023-04-25T11:39:44;6.45;;;4.32;;
11447;SDS011;43755;49.736;8.734;2023-04-25T11:41:48;4.70;;;4.20;;
11447;SDS011;43755;49.736;8.734;2023-04-25T11:43:50;5.05;;;4.15;;
11447;SDS011;43755;49.736;8.734;2023-04-25T11:45:52;7.28;;;5.10;;
11447;SDS011;43755;49.736;8.734;2023-04-25T11:47:53;5.10;;;4.28;;
11447;SDS011;43755;49.736;8.734;2023-04-25T11:49:55;6.72;;;4.30;;
11447;SDS011;43755;49.736;8.734;2023-04-25T11:51:56;6.97;;;4.40;;
11447;SDS011;43755;49.736;8.734;2023-04-25T11:53:58;9.13;;;5.10;;
11447;SDS011;43755;49.736;8.734;2023-04-25T11:55:59;7.25;;;4.72;;
11447;SDS011;43755;49.736;8.734;2023-04-25T11:58:02;6.38;;;4.68;;
11447;SDS011;43755;49.736;8.734;2023-04-25T12:00:06;5.75;;;4.68;;
11447;SDS011;43755;49.736;8.734;2023-04-25T12:02:23;5.72;;;4.95;;
11447;SDS011;43755;49.736;8.734;2023-04-25T12:04:25;6.97;;;5.00;;
11447;SDS011;43755;49.736;8.734;2023-04-25T12:06:27;6.68;;;4.30;;
11447;SDS011;43755;49.736;8.734;2023-04-25T12:08:29;5.60;;;4.80;;
11447;SDS011;43755;49.736;8.734;2023-04-25T12:10:30;5.32;;;4.03;;